Marie — FAA3182 — position and weather

sailwx.info

Track history (hours):
 
Tides and Currents Weather Stations Pressure Air Temp Water Temp Dewpoint Dewpoint Depression Visibility Wind Speed Wind Dir Waves Ship Positions

Marie

Last reported at 2018-Jun-20 15:07 UTC. Time now 2018-Jun-25 04:24 UTC.
Position N 47°30' W 002°30'.

Type: Sailing vessel. MMSI: 227110020.

Date/timePositionNaut miles runAvg speedWind from/ knotsBaromVisibWave heightAir tempDewpointWater temp
2018-Jun-20 15:07N 47°30' W 002°30'1 5.3
2018-Jun-20 14:51N 47°30' W 002°32'2 6.5
2018-Jun-20 14:30N 47°29' W 002°36'1 2.6
2018-Jun-20 13:59N 47°28' W 002°37'1 2.3
2018-Jun-20 13:26N 47°27' W 002°38'2 4.6
2018-Jun-20 13:00N 47°28' W 002°41'1 2.8
2018-Jun-20 12:30N 47°28' W 002°43'1 1.9
2018-Jun-20 12:00N 47°28' W 002°44'2 3.9
2018-Jun-20 11:30N 47°29' W 002°47'2 4.1
2018-Jun-20 10:59N 47°29' W 002°50'2 4.1
2018-Jun-20 10:30N 47°30' W 002°52'2 4.1
2018-Jun-20 10:00N 47°31' W 002°55'2 4.5
2018-Jun-20 09:30N 47°32' W 002°58'2 3.2
2018-Jun-20 09:00N 47°33' W 002°60'2 3.7
2018-Jun-20 08:30N 47°35' W 003°01'1 0.0
2018-Jun-19 14:42N 47°35' W 003°01'0 0.0
2018-Jun-19 13:51N 47°35' W 003°01'0 0.0
2018-Jun-19 13:30N 47°35' W 003°01'0 0.0
2018-Jun-19 12:56N 47°35' W 003°01'2 3.8
2018-Jun-19 12:30N 47°34' W 003°01'3 5.1
2018-Jun-19 12:00N 47°31' W 002°59'3 5.4
2018-Jun-19 11:30N 47°29' W 002°56'3 5.5
2018-Jun-19 11:00N 47°29' W 002°53'3 5.6
2018-Jun-19 10:29N 47°28' W 002°48'3 5.6
2018-Jun-19 09:59N 47°28' W 002°44'3 5.9
2018-Jun-19 09:30N 47°28' W 002°40'3 6.1
2018-Jun-19 09:00N 47°29' W 002°36'  
Track history (hours):
 
Tides and Currents Weather Stations Pressure Air Temp Water Temp Dewpoint Dewpoint Depression Visibility Wind Speed Wind Dir Waves Ship Positions

Marie

Last reported at 2018-Jun-20 15:07 UTC. Time now 2018-Jun-25 04:24 UTC.
Position N 47°30' W 002°30'.

Type: Sailing vessel. MMSI: 227110020.

Date/timePositionNaut miles runAvg speedWind from/ knotsBaromVisibWave heightAir tempDewpointWater temp
2018-Jun-20 15:07N 47°30' W 002°30'1 5.3
2018-Jun-20 14:51N 47°30' W 002°32'2 6.5
2018-Jun-20 14:30N 47°29' W 002°36'1 2.6
2018-Jun-20 13:59N 47°28' W 002°37'1 2.3
2018-Jun-20 13:26N 47°27' W 002°38'2 4.6
2018-Jun-20 13:00N 47°28' W 002°41'1 2.8
2018-Jun-20 12:30N 47°28' W 002°43'1 1.9
2018-Jun-20 12:00N 47°28' W 002°44'2 3.9
2018-Jun-20 11:30N 47°29' W 002°47'2 4.1
2018-Jun-20 10:59N 47°29' W 002°50'2 4.1
2018-Jun-20 10:30N 47°30' W 002°52'2 4.1
2018-Jun-20 10:00N 47°31' W 002°55'2 4.5
2018-Jun-20 09:30N 47°32' W 002°58'2 3.2
2018-Jun-20 09:00N 47°33' W 002°60'2 3.7
2018-Jun-20 08:30N 47°35' W 003°01'1 0.0
2018-Jun-19 14:42N 47°35' W 003°01'0 0.0
2018-Jun-19 13:51N 47°35' W 003°01'0 0.0
2018-Jun-19 13:30N 47°35' W 003°01'0 0.0
2018-Jun-19 12:56N 47°35' W 003°01'2 3.8
2018-Jun-19 12:30N 47°34' W 003°01'3 5.1
2018-Jun-19 12:00N 47°31' W 002°59'3 5.4
2018-Jun-19 11:30N 47°29' W 002°56'3 5.5
2018-Jun-19 11:00N 47°29' W 002°53'3 5.6
2018-Jun-19 10:29N 47°28' W 002°48'3 5.6
2018-Jun-19 09:59N 47°28' W 002°44'3 5.9
2018-Jun-19 09:30N 47°28' W 002°40'3 6.1
2018-Jun-19 09:00N 47°29' W 002°36'  

Dump ship's entire track history